Time;durP1;ratioP1;P1;durP2;ratioP2;P2;SDS_P1;SDS_P2;PMS_P1;PMS_P2;Temp;Humidity;BMP_temperature;BMP_pressure;BME280_temperature;BME280_humidity;BME280_pressure;Samples;Min_cycle;Max_cycle;Signal;HPM_P1;HPM_P2
2023/10/25 00:00:08;;;;;;;8.23;3.58;;;9.80;99.90;;;;;;4224524;28;20427;-82
2023/10/25 00:02:09;;;;;;;11.43;4.53;;;9.80;99.90;;;;;;4212841;28;20059;-82
2023/10/25 00:04:10;;;;;;;11.25;3.42;;;9.50;99.90;;;;;;4236558;28;20522;-82
2023/10/25 00:06:11;;;;;;;12.25;3.47;;;9.80;99.90;;;;;;4241539;28;20043;-82
2023/10/25 00:08:13;;;;;;;11.02;4.35;;;9.70;99.90;;;;;;4231133;28;20047;-82
2023/10/25 00:10:13;;;;;;;8.65;3.75;;;9.80;99.90;;;;;;4231391;28;20399;-82
2023/10/25 00:12:14;;;;;;;10.65;3.47;;;9.60;99.90;;;;;;4231386;28;20095;-82
2023/10/25 00:14:15;;;;;;;9.52;3.70;;;9.80;99.90;;;;;;4231185;28;20043;-80
2023/10/25 00:16:17;;;;;;;12.07;4.30;;;9.80;99.90;;;;;;4231131;28;20589;-80
2023/10/25 00:18:18;;;;;;;10.73;4.95;;;9.80;99.90;;;;;;4237133;28;20078;-83
2023/10/25 00:20:18;;;;;;;8.93;3.50;;;9.80;99.90;;;;;;4240820;28;20039;-80
2023/10/25 00:22:19;;;;;;;10.27;3.45;;;9.80;99.90;;;;;;4237704;28;20047;-80
2023/10/25 00:24:20;;;;;;;8.68;2.88;;;9.80;99.90;;;;;;4222770;28;20044;-80
2023/10/25 00:26:21;;;;;;;7.28;3.58;;;9.80;99.90;;;;;;4237826;28;20075;-80
2023/10/25 00:28:21;;;;;;;10.45;3.13;;;9.70;99.90;;;;;;4240355;28;20044;-80
2023/10/25 00:30:22;;;;;;;7.80;3.17;;;9.70;99.90;;;;;;4225189;28;20130;-80
2023/10/25 00:32:23;;;;;;;10.80;3.22;;;9.70;99.90;;;;;;4247485;28;20461;-80
2023/10/25 00:34:24;;;;;;;7.55;3.67;;;9.60;99.90;;;;;;4239959;28;20395;-81
2023/10/25 00:36:24;;;;;;;9.85;3.42;;;9.70;99.90;;;;;;4220318;28;20461;-81
2023/10/25 00:38:25;;;;;;;7.07;2.78;;;9.60;99.90;;;;;;4240057;28;20047;-81
2023/10/25 00:40:26;;;;;;;9.18;3.13;;;9.60;99.90;;;;;;4238559;28;20477;-81
2023/10/25 00:42:26;;;;;;;8.77;3.30;;;9.60;99.90;;;;;;4239410;28;20050;-81
2023/10/25 00:44:27;;;;;;;10.23;3.80;;;9.60;99.90;;;;;;4220366;28;20123;-81
2023/10/25 00:46:29;;;;;;;11.73;3.25;;;9.60;99.90;;;;;;4239661;28;20392;-81
2023/10/25 00:48:30;;;;;;;11.98;3.75;;;9.60;99.90;;;;;;4239140;28;20058;-81
2023/10/25 00:50:31;;;;;;;9.90;3.70;;;9.60;99.90;;;;;;4228327;28;20056;-80
2023/10/25 00:52:32;;;;;;;9.18;3.03;;;9.60;99.90;;;;;;4247447;28;20135;-80
2023/10/25 00:54:34;;;;;;;8.50;2.95;;;9.60;99.90;;;;;;4220480;28;20040;-81
2023/10/25 00:56:35;;;;;;;8.18;3.15;;;9.50;99.90;;;;;;4239729;28;20502;-81
2023/10/25 00:58:41;;;;;;;7.63;3.45;;;9.60;99.90;;;;;;4238354;28;20495;-81
2023/10/25 01:00:42;;;;;;;7.18;3.30;;;9.50;99.90;;;;;;4240849;28;20110;-81
2023/10/25 01:02:43;;;;;;;17.02;4.25;;;9.50;99.90;;;;;;4237282;28;20070;-81
2023/10/25 01:04:44;;;;;;;8.60;3.28;;;9.50;99.90;;;;;;4243974;27;20122;-83
2023/10/25 01:06:44;;;;;;;8.77;3.15;;;9.50;99.90;;;;;;4221758;28;20040;-80
2023/10/25 01:08:45;;;;;;;8.80;3.55;;;9.50;99.90;;;;;;4244036;27;20039;-80
2023/10/25 01:10:50;;;;;;;8.13;3.22;;;9.50;99.90;;;;;;4239981;27;20051;-80
2023/10/25 01:12:51;;;;;;;9.55;4.15;;;9.40;99.90;;;;;;4226956;28;20063;-80
2023/10/25 01:14:52;;;;;;;9.50;2.97;;;9.40;99.90;;;;;;4221027;28;20047;-80
2023/10/25 01:16:53;;;;;;;9.30;3.80;;;9.40;99.90;;;;;;4227360;28;20040;-80
2023/10/25 01:18:54;;;;;;;6.10;3.10;;;9.50;99.90;;;;;;4239169;27;20039;-80
2023/10/25 01:20:55;;;;;;;11.40;3.55;;;9.40;99.90;;;;;;4245523;27;20039;-80
2023/10/25 01:22:56;;;;;;;11.13;3.33;;;9.40;99.90;;;;;;4238824;27;20071;-81
2023/10/25 01:24:56;;;;;;;10.50;3.72;;;9.60;99.90;;;;;;4246038;27;20479;-80
2023/10/25 01:26:57;;;;;;;14.10;3.55;;;9.20;99.90;;;;;;4219721;28;20666;-81
2023/10/25 01:28:58;;;;;;;7.97;3.30;;;9.30;99.90;;;;;;4227308;28;20400;-80
2023/10/25 01:30:59;;;;;;;7.72;3.40;;;9.30;99.90;;;;;;4254358;27;20054;-81
2023/10/25 01:33:01;;;;;;;8.63;3.53;;;9.20;99.90;;;;;;4257679;27;20054;-80
2023/10/25 01:35:02;;;;;;;10.10;4.65;;;9.30;99.90;;;;;;4243912;27;20040;-80
2023/10/25 01:37:02;;;;;;;7.22;3.35;;;9.20;99.90;;;;;;4253867;27;20047;-80
2023/10/25 01:39:03;;;;;;;9.05;3.40;;;9.20;99.90;;;;;;4223472;28;20082;-81
2023/10/25 01:41:04;;;;;;;19.80;4.18;;;9.10;99.90;;;;;;4253408;27;20058;-81
2023/10/25 01:43:05;;;;;;;15.13;3.90;;;9.60;99.90;;;;;;4241266;27;20107;-81
2023/10/25 01:45:06;;;;;;;9.55;4.00;;;9.10;99.90;;;;;;4247585;27;20102;-81
2023/10/25 01:47:07;;;;;;;9.13;3.67;;;9.10;99.90;;;;;;4237235;27;20122;-81
2023/10/25 01:49:08;;;;;;;5.60;3.35;;;9.50;99.90;;;;;;4229018;28;20463;-81
2023/10/25 01:51:09;;;;;;;8.60;4.07;;;9.10;99.90;;;;;;4236892;27;20047;-81
2023/10/25 01:53:10;;;;;;;8.82;3.92;;;8.90;99.90;;;;;;4247173;27;20118;-81
2023/10/25 01:55:12;;;;;;;12.13;3.83;;;9.00;99.90;;;;;;4250756;27;20453;-80
2023/10/25 01:57:13;;;;;;;8.38;3.38;;;9.00;99.90;;;;;;4235863;27;20493;-81
2023/10/25 01:59:14;;;;;;;10.00;3.78;;;9.00;99.90;;;;;;4248725;27;20122;-81
2023/10/25 02:01:14;;;;;;;7.88;3.75;;;9.10;99.90;;;;;;4236075;27;20465;-81
2023/10/25 02:03:15;;;;;;;13.85;3.28;;;9.00;99.90;;;;;;4232931;28;20044;-81
2023/10/25 02:05:16;;;;;;;7.93;2.90;;;9.00;99.90;;;;;;4247969;27;20046;-81
2023/10/25 02:07:17;;;;;;;9.57;3.85;;;9.00;99.90;;;;;;4231486;28;20802;-82
2023/10/25 02:09:18;;;;;;;7.45;3.03;;;8.90;99.90;;;;;;4234888;27;20044;-82
2023/10/25 02:11:20;;;;;;;9.93;3.33;;;8.90;99.90;;;;;;4248236;27;20095;-81
2023/10/25 02:13:21;;;;;;;6.97;3.47;;;9.00;99.90;;;;;;4234072;27;20043;-81
2023/10/25 02:15:21;;;;;;;5.60;2.85;;;8.90;99.90;;;;;;4248243;27;20128;-81
2023/10/25 02:17:23;;;;;;;7.38;3.47;;;9.30;99.90;;;;;;4215720;28;20097;-81
2023/10/25 02:19:24;;;;;;;9.15;3.38;;;8.90;99.90;;;;;;4230811;28;20138;-81
2023/10/25 02:21:25;;;;;;;9.98;3.55;;;9.40;99.90;;;;;;4249569;27;20039;-81
2023/10/25 02:23:25;;;;;;;9.20;3.55;;;8.90;99.90;;;;;;4233458;27;20130;-81
2023/10/25 02:25:26;;;;;;;9.25;3.63;;;8.90;99.90;;;;;;4249040;27;20035;-82
2023/10/25 02:27:27;;;;;;;6.38;3.60;;;8.90;99.90;;;;;;4233107;27;20043;-81
2023/10/25 02:29:28;;;;;;;12.75;3.30;;;8.90;99.90;;;;;;4248667;27;20046;-82
2023/10/25 02:31:28;;;;;;;12.10;3.25;;;8.90;99.90;;;;;;4249907;27;20079;-81
2023/10/25 02:33:29;;;;;;;10.70;3.50;;;8.90;99.90;;;;;;4231492;28;20051;-81
2023/10/25 02:35:31;;;;;;;10.77;3.85;;;8.90;99.90;;;;;;4235544;28;20126;-81
2023/10/25 02:37:31;;;;;;;7.30;3.95;;;8.80;99.90;;;;;;4248042;28;20040;-81
2023/10/25 02:39:32;;;;;;;9.45;3.72;;;8.90;99.90;;;;;;4252151;27;20047;-81
2023/10/25 02:41:33;;;;;;;8.45;3.95;;;8.90;99.90;;;;;;4249283;27;20039;-82
2023/10/25 02:43:34;;;;;;;13.05;4.18;;;8.80;99.90;;;;;;4232830;27;20054;-83
2023/10/25 02:45:35;;;;;;;6.63;3.25;;;8.80;99.90;;;;;;4248213;27;20043;-81
2023/10/25 02:47:36;;;;;;;10.88;4.97;;;8.80;99.90;;;;;;4215281;28;20048;-82
2023/10/25 02:49:37;;;;;;;9.45;4.25;;;8.70;99.90;;;;;;4247534;27;20039;-81
2023/10/25 02:51:38;;;;;;;7.15;3.70;;;8.80;99.90;;;;;;4233348;27;20047;-81
2023/10/25 02:53:39;;;;;;;13.27;4.30;;;8.70;99.90;;;;;;4248300;27;20150;-81
2023/10/25 02:55:40;;;;;;;11.80;3.88;;;9.30;99.90;;;;;;4233962;27;20051;-80
2023/10/25 02:57:41;;;;;;;12.98;4.00;;;8.70;99.90;;;;;;4229593;28;20092;-80
2023/10/25 02:59:42;;;;;;;7.18;4.03;;;8.70;99.90;;;;;;4233822;27;20050;-81
2023/10/25 03:01:43;;;;;;;12.38;5.28;;;9.30;99.90;;;;;;4229230;28;20061;-81
2023/10/25 03:03:44;;;;;;;10.23;4.35;;;8.70;99.90;;;;;;4216892;28;20130;-82
2023/10/25 03:05:44;;;;;;;10.20;5.30;;;8.70;99.90;;;;;;4247859;27;20047;-82
2023/10/25 03:07:45;;;;;;;12.57;4.82;;;8.70;99.90;;;;;;4235301;27;20043;-81
2023/10/25 03:09:46;;;;;;;15.43;5.45;;;8.70;99.90;;;;;;4247886;27;20035;-81
2023/10/25 03:11:46;;;;;;;9.80;3.97;;;9.20;99.90;;;;;;4235150;27;20054;-82
2023/10/25 03:13:47;;;;;;;8.68;4.38;;;8.70;99.90;;;;;;4229079;28;20491;-82
2023/10/25 03:15:48;;;;;;;13.38;4.32;;;8.70;99.90;;;;;;4216798;28;20067;-81
2023/10/25 03:17:49;;;;;;;11.40;4.35;;;9.10;99.90;;;;;;4247137;27;20122;-82
2023/10/25 03:19:49;;;;;;;11.65;4.88;;;8.60;99.90;;;;;;4235630;27;20114;-82
2023/10/25 03:21:50;;;;;;;14.65;5.25;;;8.60;99.90;;;;;;4249740;27;20591;-81
2023/10/25 03:23:51;;;;;;;13.40;5.63;;;9.00;99.90;;;;;;4247412;27;20042;-81
2023/10/25 03:25:52;;;;;;;16.13;4.90;;;8.60;99.90;;;;;;4247889;27;20091;-82
2023/10/25 03:27:52;;;;;;;10.68;6.05;;;8.60;99.90;;;;;;4246076;27;20048;-82
2023/10/25 03:29:55;;;;;;;13.30;5.15;;;8.60;99.90;;;;;;4235560;27;20839;-82
2023/10/25 03:31:58;;;;;;;10.48;4.93;;;8.50;99.90;;;;;;4247699;27;20061;-81
2023/10/25 03:33:58;;;;;;;11.25;5.05;;;8.60;99.90;;;;;;4225535;28;20047;-81
2023/10/25 03:36:00;;;;;;;10.07;4.88;;;8.60;99.90;;;;;;4254643;27;20040;-81
2023/10/25 03:38:00;;;;;;;14.20;5.82;;;8.50;99.90;;;;;;4221674;28;20046;-81
2023/10/25 03:40:01;;;;;;;16.25;5.28;;;9.10;99.90;;;;;;4245983;27;20118;-81
2023/10/25 03:42:03;;;;;;;8.13;4.80;;;8.50;99.90;;;;;;4238712;27;20390;-81
2023/10/25 03:44:05;;;;;;;15.13;5.65;;;8.50;99.90;;;;;;4249111;27;20471;-82
2023/10/25 03:46:07;;;;;;;13.38;6.38;;;8.60;99.90;;;;;;4241484;27;20528;-81
2023/10/25 03:48:09;;;;;;;11.40;5.07;;;8.50;99.90;;;;;;4243400;27;20462;-81
2023/10/25 03:50:10;;;;;;;11.38;6.25;;;8.50;99.90;;;;;;4231699;28;20055;-81
2023/10/25 03:52:10;;;;;;;12.45;5.65;;;8.50;99.90;;;;;;4237138;27;20039;-81
2023/10/25 03:54:11;;;;;;;11.65;6.07;;;9.00;99.90;;;;;;4249392;27;20513;-81
2023/10/25 03:56:12;;;;;;;12.43;5.65;;;8.50;99.90;;;;;;4230303;28;20047;-81
2023/10/25 03:58:13;;;;;;;12.70;5.90;;;8.80;99.90;;;;;;4224715;28;20492;-81
2023/10/25 04:00:14;;;;;;;18.17;6.90;;;8.50;99.90;;;;;;4237818;27;20117;-81
2023/10/25 04:02:15;;;;;;;15.13;5.90;;;8.50;99.90;;;;;;4242423;27;20039;-82
2023/10/25 04:04:16;;;;;;;17.65;6.28;;;9.10;99.90;;;;;;4231566;28;20401;-82
2023/10/25 04:06:17;;;;;;;13.32;6.30;;;8.50;99.90;;;;;;4219979;28;20126;-82
2023/10/25 04:08:18;;;;;;;12.40;6.40;;;8.50;99.90;;;;;;4241670;28;20080;-82
2023/10/25 04:10:19;;;;;;;15.90;6.32;;;9.10;99.90;;;;;;4231710;28;20047;-82
2023/10/25 04:12:20;;;;;;;11.63;6.05;;;8.40;99.90;;;;;;4238337;28;20047;-82
2023/10/25 04:14:20;;;;;;;16.00;6.65;;;8.40;99.90;;;;;;4223526;28;20604;-82
2023/10/25 04:16:21;;;;;;;12.90;6.20;;;8.90;99.90;;;;;;4220696;28;20126;-82
2023/10/25 04:18:24;;;;;;;12.38;5.82;;;8.50;99.90;;;;;;4205781;28;20044;-82
2023/10/25 04:20:24;;;;;;;11.52;6.10;;;8.40;99.90;;;;;;4239267;28;20050;-82
2023/10/25 04:22:25;;;;;;;12.10;6.18;;;8.70;99.90;;;;;;4239849;28;20071;-82
2023/10/25 04:24:26;;;;;;;21.60;6.88;;;8.50;99.90;;;;;;4238732;28;20483;-82
2023/10/25 04:26:28;;;;;;;18.33;5.75;;;9.00;99.90;;;;;;4248423;28;20039;-82
2023/10/25 04:28:29;;;;;;;12.35;5.22;;;8.40;99.90;;;;;;4239934;28;20389;-82
2023/10/25 04:30:32;;;;;;;13.70;6.07;;;8.40;99.90;;;;;;4204776;28;20126;-82
2023/10/25 04:32:33;;;;;;;15.43;6.03;;;8.40;99.90;;;;;;4239167;28;20488;-82
2023/10/25 04:34:34;;;;;;;19.60;6.50;;;8.50;99.90;;;;;;4240269;28;20115;-82
2023/10/25 04:36:34;;;;;;;14.35;5.72;;;8.60;99.90;;;;;;4203589;28;20045;-82
2023/10/25 04:38:38;;;;;;;12.68;6.20;;;8.70;99.90;;;;;;4243944;27;20100;-82
2023/10/25 04:40:39;;;;;;;13.50;6.32;;;8.40;99.90;;;;;;4241824;27;20077;-82
2023/10/25 04:42:43;;;;;;;13.23;5.68;;;8.40;99.90;;;;;;4243848;27;20062;-82
2023/10/25 04:44:43;;;;;;;16.42;5.72;;;8.40;99.90;;;;;;4222715;28;20101;-82
2023/10/25 04:46:44;;;;;;;17.85;6.18;;;8.40;99.90;;;;;;4209724;28;20048;-82
2023/10/25 04:48:45;;;;;;;16.48;6.32;;;8.40;99.90;;;;;;4240328;27;20423;-81
2023/10/25 04:50:46;;;;;;;12.20;5.35;;;8.40;99.90;;;;;;4244057;27;20552;-82
2023/10/25 04:52:50;;;;;;;14.95;6.47;;;8.30;99.90;;;;;;4240419;27;20095;-82
2023/10/25 04:54:52;;;;;;;18.38;6.75;;;8.30;99.90;;;;;;4245689;27;20403;-82
2023/10/25 04:56:52;;;;;;;12.75;5.40;;;7.80;99.90;;;;;;4239626;27;20035;-82
2023/10/25 04:58:53;;;;;;;12.40;5.47;;;8.30;99.90;;;;;;4245726;27;20043;-82
2023/10/25 05:00:55;;;;;;;15.43;5.80;;;8.60;99.90;;;;;;4239006;27;20392;-82
2023/10/25 05:02:56;;;;;;;11.48;5.18;;;8.30;99.90;;;;;;4246058;27;20039;-82
2023/10/25 05:04:56;;;;;;;13.13;5.88;;;8.40;99.90;;;;;;4238777;27;20048;-82
2023/10/25 05:06:57;;;;;;;14.85;5.90;;;8.90;99.90;;;;;;4246331;27;20114;-82
2023/10/25 05:08:58;;;;;;;11.00;4.53;;;8.30;99.90;;;;;;4238824;27;20047;-82
2023/10/25 05:11:05;;;;;;;10.73;5.47;;;8.30;99.90;;;;;;4233840;28;20043;-82
2023/10/25 05:13:06;;;;;;;13.23;5.15;;;8.30;99.90;;;;;;4247180;27;20453;-82
2023/10/25 05:15:11;;;;;;;10.15;5.55;;;8.30;99.90;;;;;;4237274;27;20496;-82
2023/10/25 05:17:13;;;;;;;10.88;5.68;;;8.30;99.90;;;;;;4230451;28;20043;-82
2023/10/25 05:19:14;;;;;;;11.95;4.68;;;8.30;99.90;;;;;;4217950;28;20448;-82
2023/10/25 05:21:18;;;;;;;9.02;4.63;;;8.30;99.90;;;;;;4230729;28;20043;-81
2023/10/25 05:23:19;;;;;;;10.70;4.90;;;8.40;99.90;;;;;;4235772;27;20044;-82
2023/10/25 05:25:21;;;;;;;13.40;5.80;;;8.20;99.90;;;;;;4237967;27;20035;-82
2023/10/25 05:27:22;;;;;;;10.65;5.10;;;8.30;99.90;;;;;;4249354;27;20043;-82
2023/10/25 05:29:23;;;;;;;10.15;5.03;;;8.30;99.90;;;;;;4234513;27;20136;-82
2023/10/25 05:31:27;;;;;;;19.58;6.35;;;8.30;99.90;;;;;;4249697;27;20055;-82
2023/10/25 05:33:30;;;;;;;9.65;4.85;;;8.30;99.90;;;;;;4233825;27;20067;-82
2023/10/25 05:35:31;;;;;;;17.23;5.03;;;8.70;99.90;;;;;;4233703;28;20126;-83
2023/10/25 05:37:32;;;;;;;13.10;5.30;;;8.20;99.90;;;;;;4250343;27;20774;-83
2023/10/25 05:39:34;;;;;;;15.00;5.57;;;8.20;99.90;;;;;;4233568;27;20043;-82
2023/10/25 05:41:40;;;;;;;12.25;5.10;;;8.20;99.90;;;;;;4249622;27;20065;-82
2023/10/25 05:43:43;;;;;;;12.75;5.03;;;8.10;99.90;;;;;;4216590;28;20090;-82
2023/10/25 05:45:44;;;;;;;12.02;4.88;;;8.70;99.90;;;;;;4248455;27;20044;-82
2023/10/25 05:47:45;;;;;;;12.82;5.38;;;8.10;99.90;;;;;;4235475;27;20040;-82
2023/10/25 05:49:47;;;;;;;10.52;5.13;;;8.10;99.90;;;;;;4246957;27;20063;-82
2023/10/25 05:51:48;;;;;;;11.38;4.78;;;8.00;99.90;;;;;;4235642;27;20039;-82
2023/10/25 05:53:49;;;;;;;13.07;4.95;;;8.00;99.90;;;;;;4249978;27;20078;-82
2023/10/25 05:55:51;;;;;;;10.15;5.72;;;8.00;99.90;;;;;;4247384;27;20043;-82
2023/10/25 05:57:52;;;;;;;10.60;4.60;;;7.90;99.90;;;;;;4236057;27;20073;-82
2023/10/25 05:59:53;;;;;;;19.30;5.55;;;7.90;99.90;;;;;;4247243;27;20541;-82
2023/10/25 06:02:08;;;;;;;11.60;5.47;;;7.90;99.90;;;;;;4233198;28;20043;-82
2023/10/25 06:04:11;;;;;;;9.90;5.25;;;7.90;99.90;;;;;;4238318;27;20039;-82
2023/10/25 06:06:13;;;;;;;11.80;4.15;;;8.60;99.90;;;;;;4244068;27;20126;-82
2023/10/25 06:08:14;;;;;;;13.27;5.10;;;7.90;99.90;;;;;;4239171;27;20414;-84
2023/10/25 06:10:16;;;;;;;13.65;4.93;;;7.80;99.90;;;;;;4247568;27;20039;-83
2023/10/25 06:12:17;;;;;;;14.43;5.80;;;7.80;99.90;;;;;;4247659;27;20043;-83
2023/10/25 06:14:18;;;;;;;11.55;5.47;;;7.80;99.90;;;;;;4243341;27;20044;-83
2023/10/25 06:16:19;;;;;;;17.35;6.05;;;7.80;99.90;;;;;;4239668;27;20077;-83
2023/10/25 06:18:19;;;;;;;15.20;5.30;;;7.70;99.90;;;;;;4242897;27;20043;-83
2023/10/25 06:20:20;;;;;;;13.18;5.28;;;7.70;99.90;;;;;;4239779;27;20050;-83
2023/10/25 06:22:21;;;;;;;12.98;5.45;;;7.90;99.90;;;;;;4249653;27;20108;-83
2023/10/25 06:24:22;;;;;;;12.00;5.30;;;8.00;99.90;;;;;;4241835;27;20042;-83
2023/10/25 06:26:24;;;;;;;11.43;4.95;;;8.40;99.90;;;;;;4240490;27;20483;-83
2023/10/25 06:28:25;;;;;;;11.98;5.13;;;7.90;99.90;;;;;;4249811;27;20050;-83
2023/10/25 06:30:27;;;;;;;14.07;5.65;;;7.70;99.90;;;;;;4242031;27;20044;-83
2023/10/25 06:32:28;;;;;;;14.02;4.88;;;7.60;99.90;;;;;;4240670;27;20441;-83
2023/10/25 06:34:28;;;;;;;12.35;5.20;;;7.40;99.90;;;;;;4241572;27;20051;-83
2023/10/25 06:36:32;;;;;;;11.40;4.60;;;8.20;99.90;;;;;;4217305;28;20462;-83
2023/10/25 06:38:33;;;;;;;8.90;4.57;;;7.60;99.90;;;;;;4241442;27;20061;-83
2023/10/25 06:40:35;;;;;;;9.50;4.38;;;7.60;99.90;;;;;;4249087;27;20043;-83
2023/10/25 06:42:36;;;;;;;12.82;5.10;;;7.60;99.90;;;;;;4240299;27;20548;-82
2023/10/25 06:44:37;;;;;;;11.45;4.75;;;7.60;99.90;;;;;;4242279;27;20046;-83
2023/10/25 06:46:38;;;;;;;8.48;5.63;;;7.50;99.90;;;;;;4240044;27;20071;-83
2023/10/25 06:48:39;;;;;;;12.57;5.95;;;7.50;99.90;;;;;;4241994;27;20406;-83
2023/10/25 06:50:45;;;;;;;10.93;4.65;;;7.50;99.90;;;;;;4204682;28;20048;-83
2023/10/25 06:52:46;;;;;;;15.68;4.93;;;7.50;99.90;;;;;;4243215;27;20399;-83
2023/10/25 06:54:49;;;;;;;10.93;4.70;;;7.50;99.90;;;;;;4238676;27;20044;-83
2023/10/25 06:56:50;;;;;;;12.35;4.75;;;7.50;99.90;;;;;;4243914;27;20076;-83
2023/10/25 06:58:52;;;;;;;14.57;5.53;;;7.50;99.90;;;;;;4219589;28;20048;-83
2023/10/25 07:00:55;;;;;;;14.93;5.35;;;7.60;99.90;;;;;;4243942;27;20046;-83
2023/10/25 07:03:02;;;;;;;9.95;4.85;;;7.50;99.90;;;;;;4218842;28;20568;-83
2023/10/25 07:05:11;;;;;;;11.07;4.75;;;7.60;99.90;;;;;;4244094;27;20625;-83
2023/10/25 07:07:14;;;;;;;10.70;4.88;;;7.60;99.90;;;;;;4248956;27;20047;-83
2023/10/25 07:09:15;;;;;;;9.93;4.78;;;7.60;99.90;;;;;;4234484;27;20048;-83
2023/10/25 07:11:16;;;;;;;13.55;5.28;;;7.60;99.90;;;;;;4247578;27;20118;-83
2023/10/25 07:13:16;;;;;;;15.88;5.00;;;7.60;99.90;;;;;;4215820;28;20051;-82
2023/10/25 07:15:18;;;;;;;8.48;4.70;;;7.70;99.90;;;;;;4229306;28;20065;-82
2023/10/25 07:17:19;;;;;;;11.13;5.03;;;7.90;99.90;;;;;;4233652;27;20074;-83
2023/10/25 07:19:21;;;;;;;11.65;5.10;;;7.70;99.90;;;;;;4229456;28;20052;-82
2023/10/25 07:21:21;;;;;;;10.30;4.38;;;7.80;99.90;;;;;;4249380;27;20039;-82
2023/10/25 07:23:22;;;;;;;9.93;4.43;;;7.70;99.90;;;;;;4249137;27;20053;-83
2023/10/25 07:25:23;;;;;;;9.07;4.38;;;7.70;99.90;;;;;;4232752;27;20040;-83
2023/10/25 07:27:24;;;;;;;9.60;5.18;;;7.70;99.90;;;;;;4248180;27;20088;-83
2023/10/25 07:29:25;;;;;;;12.98;5.22;;;7.70;99.90;;;;;;4214582;28;20044;-82
2023/10/25 07:31:25;;;;;;;14.60;5.32;;;8.10;99.90;;;;;;4248096;27;20046;-82
2023/10/25 07:33:27;;;;;;;14.43;5.03;;;8.10;99.90;;;;;;4214454;28;20480;-82
2023/10/25 07:35:28;;;;;;;10.57;4.80;;;8.20;99.90;;;;;;4248794;27;20047;-82
2023/10/25 07:37:29;;;;;;;14.80;4.93;;;7.70;99.90;;;;;;4232261;28;20190;-82
2023/10/25 07:39:31;;;;;;;11.95;4.60;;;7.70;99.90;;;;;;4232006;28;20047;-82
2023/10/25 07:41:31;;;;;;;12.63;4.38;;;8.60;99.90;;;;;;4248606;27;20136;-82
2023/10/25 07:43:32;;;;;;;18.90;5.63;;;7.80;99.90;;;;;;4232624;27;20035;-82
2023/10/25 07:45:33;;;;;;;15.65;5.45;;;8.50;99.90;;;;;;4248377;27;20046;-83
2023/10/25 07:47:34;;;;;;;9.02;5.38;;;7.90;99.90;;;;;;4231757;28;20096;-83
2023/10/25 07:49:35;;;;;;;13.00;4.22;;;7.90;99.90;;;;;;4214310;28;20047;-83
2023/10/25 07:51:36;;;;;;;12.43;4.85;;;8.50;99.90;;;;;;4248134;27;20043;-82
2023/10/25 07:53:37;;;;;;;12.27;4.78;;;8.00;99.90;;;;;;4235663;27;20545;-82
2023/10/25 07:55:41;;;;;;;11.50;4.32;;;8.00;99.90;;;;;;4221938;28;20047;-82
2023/10/25 07:57:43;;;;;;;11.45;4.55;;;8.10;99.90;;;;;;4226303;28;20105;-82
2023/10/25 07:59:44;;;;;;;9.50;5.00;;;8.10;99.90;;;;;;4246239;27;20047;-83
2023/10/25 08:01:44;;;;;;;14.32;5.15;;;8.20;99.90;;;;;;4236295;28;20046;-83
2023/10/25 08:03:45;;;;;;;11.00;5.32;;;8.20;99.90;;;;;;4242296;27;20433;-82
2023/10/25 08:05:47;;;;;;;10.25;4.40;;;8.20;99.90;;;;;;4222690;28;20054;-82
2023/10/25 08:07:48;;;;;;;11.05;4.05;;;8.80;99.90;;;;;;4233444;28;20118;-82
2023/10/25 08:09:48;;;;;;;20.83;5.35;;;8.40;99.90;;;;;;4242062;28;20452;-82
2023/10/25 08:11:49;;;;;;;9.73;4.97;;;8.40;99.90;;;;;;4242809;27;20399;-82
2023/10/25 08:13:50;;;;;;;11.77;5.32;;;8.40;99.90;;;;;;4250185;27;20050;-82
2023/10/25 08:16:01;;;;;;;10.80;4.85;;;8.40;99.90;;;;;;4241046;27;20054;-82
2023/10/25 08:18:02;;;;;;;11.95;4.55;;;8.50;99.90;;;;;;4231000;28;20036;-82
2023/10/25 08:20:04;;;;;;;9.85;4.40;;;8.60;99.90;;;;;;4223388;28;20404;-82
2023/10/25 08:22:05;;;;;;;12.18;5.03;;;8.60;99.90;;;;;;4251676;27;20475;-82
2023/10/25 08:24:06;;;;;;;11.00;4.68;;;8.70;99.90;;;;;;4254273;27;20042;-83
2023/10/25 08:26:07;;;;;;;9.07;4.88;;;8.90;99.90;;;;;;4253506;27;20126;-82
2023/10/25 08:28:08;;;;;;;10.00;5.03;;;9.30;99.90;;;;;;4229914;28;20047;-83
2023/10/25 08:30:09;;;;;;;10.07;4.50;;;9.20;99.90;;;;;;4241798;27;20527;-83
2023/10/25 08:32:12;;;;;;;8.73;3.88;;;9.30;99.90;;;;;;4249737;27;20756;-83
2023/10/25 08:34:13;;;;;;;11.15;4.25;;;9.30;99.90;;;;;;4251109;27;20551;-83
2023/10/25 08:36:13;;;;;;;7.68;4.07;;;9.30;99.90;;;;;;4232112;28;20051;-83
2023/10/25 08:38:14;;;;;;;8.00;3.97;;;9.30;99.90;;;;;;4230160;27;20508;-83
2023/10/25 08:40:15;;;;;;;7.70;4.53;;;9.30;99.90;;;;;;4248443;27;20126;-82
2023/10/25 08:42:18;;;;;;;6.78;3.80;;;9.40;99.90;;;;;;4251295;27;20047;-82
2023/10/25 08:44:19;;;;;;;8.50;3.90;;;9.40;99.90;;;;;;4249001;27;20117;-83
2023/10/25 08:46:22;;;;;;;10.25;3.70;;;9.50;99.90;;;;;;4251353;27;20044;-82
2023/10/25 08:48:25;;;;;;;8.98;4.00;;;9.60;99.90;;;;;;4251299;27;20518;-83
2023/10/25 08:50:26;;;;;;;9.80;3.88;;;9.60;99.90;;;;;;4250394;27;20215;-83
2023/10/25 08:52:27;;;;;;;6.75;3.95;;;9.70;99.90;;;;;;4251372;27;20066;-83
2023/10/25 08:54:29;;;;;;;8.85;4.20;;;9.70;99.90;;;;;;4232853;28;20039;-82
2023/10/25 08:56:29;;;;;;;9.48;4.20;;;9.70;99.90;;;;;;4248819;27;20031;-82
2023/10/25 08:58:30;;;;;;;9.43;3.58;;;9.70;99.90;;;;;;4250232;27;20091;-82
2023/10/25 09:00:32;;;;;;;7.47;4.05;;;9.70;99.90;;;;;;4250949;27;20051;-82
2023/10/25 09:02:36;;;;;;;8.82;4.28;;;9.70;99.90;;;;;;4232282;28;20050;-82
2023/10/25 09:04:56;;;;;;;6.93;3.88;;;9.70;99.90;;;;;;4251008;27;20121;-82
2023/10/25 09:06:56;;;;;;;11.20;4.10;;;9.60;99.90;;;;;;4251176;27;20538;-83
2023/10/25 09:09:08;;;;;;;5.97;3.53;;;9.60;99.90;;;;;;4232797;28;20050;-83
2023/10/25 09:11:09;;;;;;;9.00;4.00;;;9.60;99.90;;;;;;4243202;27;20040;-80
2023/10/25 09:13:13;;;;;;;7.68;4.72;;;9.60;99.90;;;;;;4239735;27;20058;-82
2023/10/25 09:15:15;;;;;;;9.05;3.95;;;9.70;99.90;;;;;;4217108;28;20087;-82
2023/10/25 09:17:15;;;;;;;9.65;3.85;;;9.70;99.90;;;;;;4239266;27;20087;-82
2023/10/25 09:19:19;;;;;;;9.45;4.18;;;9.70;99.90;;;;;;4249753;27;20054;-82
2023/10/25 09:21:29;;;;;;;7.57;4.03;;;9.70;99.90;;;;;;4232771;28;20043;-82
2023/10/25 09:23:31;;;;;;;8.10;3.90;;;9.70;99.90;;;;;;4246970;27;20392;-82
2023/10/25 09:25:31;;;;;;;9.98;4.40;;;9.70;99.90;;;;;;4244892;27;20043;-82
2023/10/25 09:27:41;;;;;;;8.77;3.70;;;9.80;99.90;;;;;;4245425;27;20391;-83
2023/10/25 09:29:42;;;;;;;9.30;4.82;;;9.70;99.90;;;;;;4236814;27;20040;-82
2023/10/25 09:31:46;;;;;;;8.32;3.72;;;9.80;99.90;;;;;;4237116;27;20526;-82
2023/10/25 09:33:47;;;;;;;10.00;3.60;;;9.80;99.90;;;;;;4237623;27;20054;-82
2023/10/25 09:35:51;;;;;;;12.07;3.70;;;9.80;99.90;;;;;;4237599;27;20122;-82
2023/10/25 09:37:52;;;;;;;9.77;3.58;;;9.80;99.90;;;;;;4238423;27;20087;-80
2023/10/25 09:39:52;;;;;;;8.63;4.38;;;9.80;99.90;;;;;;4238681;27;20046;-80
2023/10/25 09:41:55;;;;;;;14.90;4.28;;;9.80;99.90;;;;;;4238767;27;20039;-82
2023/10/25 09:44:00;;;;;;;9.25;3.67;;;9.90;99.90;;;;;;4238574;27;20054;-82
2023/10/25 09:46:05;;;;;;;9.00;4.70;;;9.90;99.90;;;;;;4243571;27;21993;-82
2023/10/25 09:48:10;;;;;;;10.13;3.75;;;10.20;99.90;;;;;;4239902;27;20072;-82
2023/10/25 09:50:19;;;;;;;7.68;3.53;;;10.00;99.90;;;;;;4226761;28;20060;-82
2023/10/25 09:52:25;;;;;;;8.02;3.85;;;10.00;99.90;;;;;;4219707;28;20043;-81
2023/10/25 09:54:34;;;;;;;11.30;3.80;;;10.00;99.90;;;;;;4218420;28;20511;-82
2023/10/25 09:56:35;;;;;;;10.13;4.13;;;10.00;99.90;;;;;;4223161;28;20032;-82
2023/10/25 09:58:37;;;;;;;10.02;3.70;;;10.20;99.90;;;;;;4222117;28;20039;-82
2023/10/25 10:00:38;;;;;;;8.57;4.05;;;10.00;99.90;;;;;;4223314;28;20090;-82
2023/10/25 10:02:57;;;;;;;7.60;4.30;;;10.10;99.90;;;;;;4221799;28;20044;-82
2023/10/25 10:05:29;;;;;;;10.25;3.50;;;10.10;99.90;;;;;;4230610;28;20036;-81
2023/10/25 10:07:45;;;;;;;10.50;3.58;;;10.20;99.90;;;;;;4221785;28;20118;-81
2023/10/25 10:10:13;;;;;;;9.38;3.53;;;10.30;99.90;;;;;;4222913;28;20539;-82
2023/10/25 10:12:14;;;;;;;9.43;4.00;;;10.30;99.90;;;;;;4227925;28;20437;-82
2023/10/25 10:14:35;;;;;;;7.30;3.83;;;10.40;99.90;;;;;;4224517;28;20073;-81
2023/10/25 10:16:37;;;;;;;8.07;3.22;;;10.40;99.90;;;;;;4228123;28;20035;-82
2023/10/25 10:18:41;;;;;;;9.73;3.75;;;10.50;99.90;;;;;;4225748;28;20047;-82
2023/10/25 10:20:42;;;;;;;5.75;4.05;;;10.70;99.90;;;;;;4229273;28;20509;-82
2023/10/25 10:23:04;;;;;;;8.48;3.65;;;10.70;99.90;;;;;;4226500;28;20127;-82
2023/10/25 10:25:05;;;;;;;9.32;4.00;;;10.70;99.90;;;;;;4229897;28;20052;-82
2023/10/25 10:27:06;;;;;;;9.00;3.72;;;10.90;99.90;;;;;;4223085;28;20477;-82
2023/10/25 10:29:36;;;;;;;7.47;4.03;;;11.00;99.90;;;;;;4229305;28;20039;-82
2023/10/25 10:31:56;;;;;;;10.90;4.45;;;;;;;;;;4219658;28;20118;-82
2023/10/25 10:33:57;;;;;;;7.90;3.78;;;;;;;;;;4228867;28;20043;-82
2023/10/25 10:36:04;;;;;;;10.02;4.18;;;11.10;99.90;;;;;;4227524;28;20096;-82
2023/10/25 10:38:06;;;;;;;9.02;4.00;;;;;;;;;;4228159;28;20396;-82